sensor_id;sensor_type;location;lat;lon;timestamp;P1;durP1;ratioP1;P2;durP2;ratioP2
5650;SDS011;40241;52.684;9.758;2023-06-26T00:01:29;9.47;;;8.57;;
5650;SDS011;40241;52.684;9.758;2023-06-26T00:03:57;8.67;;;7.87;;
5650;SDS011;40241;52.684;9.758;2023-06-26T00:06:26;9.30;;;8.50;;
5650;SDS011;40241;52.684;9.758;2023-06-26T00:08:53;8.33;;;7.60;;
5650;SDS011;40241;52.684;9.758;2023-06-26T00:11:19;8.10;;;7.40;;
5650;SDS011;40241;52.684;9.758;2023-06-26T00:13:45;8.33;;;7.63;;
5650;SDS011;40241;52.684;9.758;2023-06-26T00:16:10;8.50;;;7.60;;
5650;SDS011;40241;52.684;9.758;2023-06-26T00:18:35;8.77;;;8.00;;
5650;SDS011;40241;52.684;9.758;2023-06-26T00:21:01;7.97;;;7.37;;
5650;SDS011;40241;52.684;9.758;2023-06-26T00:23:26;8.60;;;7.80;;
5650;SDS011;40241;52.684;9.758;2023-06-26T00:25:52;8.63;;;7.73;;
5650;SDS011;40241;52.684;9.758;2023-06-26T00:28:18;9.00;;;8.17;;
5650;SDS011;40241;52.684;9.758;2023-06-26T00:30:43;8.53;;;7.73;;
5650;SDS011;40241;52.684;9.758;2023-06-26T00:33:09;8.03;;;7.43;;
5650;SDS011;40241;52.684;9.758;2023-06-26T00:35:34;8.60;;;7.90;;
5650;SDS011;40241;52.684;9.758;2023-06-26T00:38:00;11.20;;;7.80;;
5650;SDS011;40241;52.684;9.758;2023-06-26T00:40:26;8.80;;;8.10;;
5650;SDS011;40241;52.684;9.758;2023-06-26T00:42:52;8.60;;;7.90;;
5650;SDS011;40241;52.684;9.758;2023-06-26T00:45:18;8.67;;;7.93;;
5650;SDS011;40241;52.684;9.758;2023-06-26T00:47:43;8.07;;;7.37;;
5650;SDS011;40241;52.684;9.758;2023-06-26T00:50:08;7.80;;;7.20;;
5650;SDS011;40241;52.684;9.758;2023-06-26T00:52:34;8.80;;;8.00;;
5650;SDS011;40241;52.684;9.758;2023-06-26T00:55:00;8.50;;;7.80;;
5650;SDS011;40241;52.684;9.758;2023-06-26T00:57:26;8.97;;;8.17;;
5650;SDS011;40241;52.684;9.758;2023-06-26T00:59:52;9.07;;;8.27;;
5650;SDS011;40241;52.684;9.758;2023-06-26T01:02:17;8.60;;;7.90;;
5650;SDS011;40241;52.684;9.758;2023-06-26T01:04:45;8.47;;;7.77;;
5650;SDS011;40241;52.684;9.758;2023-06-26T01:07:19;7.47;;;6.87;;
5650;SDS011;40241;52.684;9.758;2023-06-26T01:09:46;8.43;;;7.73;;
5650;SDS011;40241;52.684;9.758;2023-06-26T01:12:12;8.50;;;7.70;;
5650;SDS011;40241;52.684;9.758;2023-06-26T01:14:38;8.20;;;7.60;;
5650;SDS011;40241;52.684;9.758;2023-06-26T01:17:04;8.97;;;8.07;;
5650;SDS011;40241;52.684;9.758;2023-06-26T01:19:30;8.07;;;7.47;;
5650;SDS011;40241;52.684;9.758;2023-06-26T01:22:23;8.30;;;7.60;;
5650;SDS011;40241;52.684;9.758;2023-06-26T01:27:45;7.07;;;6.53;;
5650;SDS011;40241;52.684;9.758;2023-06-26T01:30:13;7.97;;;7.27;;
5650;SDS011;40241;52.684;9.758;2023-06-26T01:32:40;8.10;;;7.37;;
5650;SDS011;40241;52.684;9.758;2023-06-26T01:35:07;7.63;;;7.03;;
5650;SDS011;40241;52.684;9.758;2023-06-26T01:37:33;8.87;;;8.17;;
5650;SDS011;40241;52.684;9.758;2023-06-26T01:39:58;9.37;;;8.47;;
5650;SDS011;40241;52.684;9.758;2023-06-26T01:42:24;7.90;;;7.23;;
5650;SDS011;40241;52.684;9.758;2023-06-26T01:44:49;9.43;;;7.30;;
5650;SDS011;40241;52.684;9.758;2023-06-26T01:47:19;8.40;;;7.50;;
5650;SDS011;40241;52.684;9.758;2023-06-26T01:50:08;8.43;;;7.73;;
5650;SDS011;40241;52.684;9.758;2023-06-26T01:52:40;7.53;;;6.83;;
5650;SDS011;40241;52.684;9.758;2023-06-26T01:58:07;8.70;;;7.90;;
5650;SDS011;40241;52.684;9.758;2023-06-26T02:00:34;7.87;;;7.17;;
5650;SDS011;40241;52.684;9.758;2023-06-26T02:02:59;8.70;;;8.00;;
5650;SDS011;40241;52.684;9.758;2023-06-26T02:05:25;8.80;;;8.00;;
5650;SDS011;40241;52.684;9.758;2023-06-26T02:07:50;8.87;;;8.10;;
5650;SDS011;40241;52.684;9.758;2023-06-26T02:10:16;9.17;;;7.67;;
5650;SDS011;40241;52.684;9.758;2023-06-26T02:12:41;7.30;;;6.70;;
5650;SDS011;40241;52.684;9.758;2023-06-26T02:15:07;7.67;;;7.07;;
5650;SDS011;40241;52.684;9.758;2023-06-26T02:17:33;9.00;;;8.10;;
5650;SDS011;40241;52.684;9.758;2023-06-26T02:19:59;7.97;;;7.37;;
5650;SDS011;40241;52.684;9.758;2023-06-26T02:22:24;7.63;;;6.93;;
5650;SDS011;40241;52.684;9.758;2023-06-26T02:24:50;9.30;;;8.40;;
5650;SDS011;40241;52.684;9.758;2023-06-26T02:27:15;8.00;;;7.30;;
5650;SDS011;40241;52.684;9.758;2023-06-26T02:29:40;8.00;;;7.30;;
5650;SDS011;40241;52.684;9.758;2023-06-26T02:32:06;7.83;;;7.20;;
5650;SDS011;40241;52.684;9.758;2023-06-26T02:34:32;7.20;;;6.60;;
5650;SDS011;40241;52.684;9.758;2023-06-26T02:36:58;8.03;;;7.37;;
5650;SDS011;40241;52.684;9.758;2023-06-26T02:39:25;7.63;;;7.00;;
5650;SDS011;40241;52.684;9.758;2023-06-26T02:41:51;7.30;;;6.57;;
5650;SDS011;40241;52.684;9.758;2023-06-26T02:44:16;8.10;;;7.40;;
5650;SDS011;40241;52.684;9.758;2023-06-26T02:46:41;7.97;;;7.27;;
5650;SDS011;40241;52.684;9.758;2023-06-26T02:49:07;8.10;;;7.50;;
5650;SDS011;40241;52.684;9.758;2023-06-26T02:51:32;6.97;;;6.47;;
5650;SDS011;40241;52.684;9.758;2023-06-26T02:53:58;7.20;;;6.60;;
5650;SDS011;40241;52.684;9.758;2023-06-26T02:56:23;7.97;;;7.30;;
5650;SDS011;40241;52.684;9.758;2023-06-26T02:58:49;7.73;;;6.67;;
5650;SDS011;40241;52.684;9.758;2023-06-26T03:01:14;7.67;;;7.07;;
5650;SDS011;40241;52.684;9.758;2023-06-26T03:03:40;6.70;;;6.20;;
5650;SDS011;40241;52.684;9.758;2023-06-26T03:06:06;13.70;;;7.17;;
5650;SDS011;40241;52.684;9.758;2023-06-26T03:08:32;8.30;;;7.60;;
5650;SDS011;40241;52.684;9.758;2023-06-26T03:11:00;6.93;;;6.40;;
5650;SDS011;40241;52.684;9.758;2023-06-26T03:13:25;7.30;;;6.70;;
5650;SDS011;40241;52.684;9.758;2023-06-26T03:15:51;7.27;;;6.70;;
5650;SDS011;40241;52.684;9.758;2023-06-26T03:18:16;6.50;;;6.00;;
5650;SDS011;40241;52.684;9.758;2023-06-26T03:20:41;6.80;;;6.30;;
5650;SDS011;40241;52.684;9.758;2023-06-26T03:23:06;7.43;;;6.83;;
5650;SDS011;40241;52.684;9.758;2023-06-26T03:25:32;6.53;;;6.03;;
5650;SDS011;40241;52.684;9.758;2023-06-26T03:27:57;7.90;;;7.20;;
5650;SDS011;40241;52.684;9.758;2023-06-26T03:30:22;6.97;;;6.37;;
5650;SDS011;40241;52.684;9.758;2023-06-26T03:32:48;6.80;;;6.20;;
5650;SDS011;40241;52.684;9.758;2023-06-26T03:35:13;6.30;;;5.80;;
5650;SDS011;40241;52.684;9.758;2023-06-26T03:37:39;6.53;;;6.03;;
5650;SDS011;40241;52.684;9.758;2023-06-26T03:40:05;6.50;;;6.00;;
5650;SDS011;40241;52.684;9.758;2023-06-26T03:42:31;7.10;;;6.40;;
5650;SDS011;40241;52.684;9.758;2023-06-26T03:44:56;7.27;;;6.67;;
5650;SDS011;40241;52.684;9.758;2023-06-26T03:47:21;6.50;;;6.00;;
5650;SDS011;40241;52.684;9.758;2023-06-26T03:49:47;6.60;;;6.10;;
5650;SDS011;40241;52.684;9.758;2023-06-26T03:52:12;6.20;;;5.70;;
5650;SDS011;40241;52.684;9.758;2023-06-26T03:54:37;6.73;;;6.10;;
5650;SDS011;40241;52.684;9.758;2023-06-26T03:57:03;7.07;;;6.47;;
5650;SDS011;40241;52.684;9.758;2023-06-26T03:59:28;6.30;;;5.80;;
5650;SDS011;40241;52.684;9.758;2023-06-26T04:01:54;6.57;;;6.07;;
5650;SDS011;40241;52.684;9.758;2023-06-26T04:04:19;6.90;;;6.30;;
5650;SDS011;40241;52.684;9.758;2023-06-26T04:06:44;6.37;;;5.87;;
5650;SDS011;40241;52.684;9.758;2023-06-26T04:09:10;6.30;;;5.80;;
5650;SDS011;40241;52.684;9.758;2023-06-26T04:11:35;6.57;;;5.83;;
5650;SDS011;40241;52.684;9.758;2023-06-26T04:14:00;6.57;;;6.07;;
5650;SDS011;40241;52.684;9.758;2023-06-26T04:16:26;7.10;;;6.50;;
5650;SDS011;40241;52.684;9.758;2023-06-26T04:18:51;6.10;;;5.60;;
5650;SDS011;40241;52.684;9.758;2023-06-26T04:21:18;6.63;;;6.03;;
5650;SDS011;40241;52.684;9.758;2023-06-26T04:23:43;6.80;;;6.23;;
5650;SDS011;40241;52.684;9.758;2023-06-26T04:26:09;7.00;;;6.40;;
5650;SDS011;40241;52.684;9.758;2023-06-26T04:28:38;7.23;;;6.53;;
5650;SDS011;40241;52.684;9.758;2023-06-26T04:31:03;7.20;;;6.50;;
5650;SDS011;40241;52.684;9.758;2023-06-26T04:33:29;7.20;;;6.47;;
5650;SDS011;40241;52.684;9.758;2023-06-26T04:35:54;6.10;;;5.40;;
5650;SDS011;40241;52.684;9.758;2023-06-26T04:38:20;6.57;;;6.07;;
5650;SDS011;40241;52.684;9.758;2023-06-26T04:40:46;6.80;;;6.20;;
5650;SDS011;40241;52.684;9.758;2023-06-26T04:43:12;5.70;;;5.20;;
5650;SDS011;40241;52.684;9.758;2023-06-26T04:45:37;7.47;;;6.43;;
5650;SDS011;40241;52.684;9.758;2023-06-26T04:48:02;6.33;;;5.27;;
5650;SDS011;40241;52.684;9.758;2023-06-26T04:50:28;6.47;;;5.80;;
5650;SDS011;40241;52.684;9.758;2023-06-26T04:52:55;5.33;;;4.83;;
5650;SDS011;40241;52.684;9.758;2023-06-26T04:55:21;5.87;;;5.30;;
5650;SDS011;40241;52.684;9.758;2023-06-26T04:57:49;5.80;;;5.23;;
5650;SDS011;40241;52.684;9.758;2023-06-26T05:00:14;7.40;;;6.07;;
5650;SDS011;40241;52.684;9.758;2023-06-26T05:02:40;5.60;;;5.20;;
5650;SDS011;40241;52.684;9.758;2023-06-26T05:05:05;6.10;;;5.60;;
5650;SDS011;40241;52.684;9.758;2023-06-26T05:07:31;7.23;;;5.80;;
5650;SDS011;40241;52.684;9.758;2023-06-26T05:09:56;6.10;;;5.60;;
5650;SDS011;40241;52.684;9.758;2023-06-26T05:12:21;5.40;;;4.90;;
5650;SDS011;40241;52.684;9.758;2023-06-26T05:14:47;6.70;;;6.10;;
5650;SDS011;40241;52.684;9.758;2023-06-26T05:17:13;5.53;;;5.03;;
5650;SDS011;40241;52.684;9.758;2023-06-26T05:19:39;5.50;;;5.03;;
5650;SDS011;40241;52.684;9.758;2023-06-26T05:22:04;5.10;;;4.70;;
5650;SDS011;40241;52.684;9.758;2023-06-26T05:24:32;5.60;;;5.10;;
5650;SDS011;40241;52.684;9.758;2023-06-26T05:27:02;7.70;;;5.10;;
5650;SDS011;40241;52.684;9.758;2023-06-26T05:29:31;5.00;;;4.60;;
5650;SDS011;40241;52.684;9.758;2023-06-26T05:31:58;4.67;;;4.27;;
5650;SDS011;40241;52.684;9.758;2023-06-26T05:34:24;5.60;;;5.10;;
5650;SDS011;40241;52.684;9.758;2023-06-26T05:36:53;5.30;;;4.87;;
5650;SDS011;40241;52.684;9.758;2023-06-26T05:39:22;5.87;;;4.07;;
5650;SDS011;40241;52.684;9.758;2023-06-26T05:41:48;4.40;;;4.10;;
5650;SDS011;40241;52.684;9.758;2023-06-26T05:44:13;4.93;;;4.53;;
5650;SDS011;40241;52.684;9.758;2023-06-26T05:46:38;4.60;;;4.30;;
5650;SDS011;40241;52.684;9.758;2023-06-26T05:49:04;6.17;;;4.77;;
5650;SDS011;40241;52.684;9.758;2023-06-26T05:51:29;4.43;;;4.13;;
5650;SDS011;40241;52.684;9.758;2023-06-26T05:53:55;5.77;;;4.60;;
5650;SDS011;40241;52.684;9.758;2023-06-26T05:56:20;4.00;;;3.70;;
5650;SDS011;40241;52.684;9.758;2023-06-26T05:58:46;5.13;;;4.73;;
5650;SDS011;40241;52.684;9.758;2023-06-26T06:01:12;4.37;;;4.07;;
5650;SDS011;40241;52.684;9.758;2023-06-26T06:03:38;5.00;;;4.17;;
5650;SDS011;40241;52.684;9.758;2023-06-26T06:06:04;6.07;;;4.60;;
5650;SDS011;40241;52.684;9.758;2023-06-26T06:08:29;4.40;;;4.00;;
5650;SDS011;40241;52.684;9.758;2023-06-26T06:10:55;4.07;;;3.77;;
5650;SDS011;40241;52.684;9.758;2023-06-26T06:13:20;5.10;;;4.60;;
5650;SDS011;40241;52.684;9.758;2023-06-26T06:15:45;5.10;;;4.60;;
5650;SDS011;40241;52.684;9.758;2023-06-26T06:18:11;4.40;;;4.10;;
5650;SDS011;40241;52.684;9.758;2023-06-26T06:20:36;4.83;;;4.37;;
5650;SDS011;40241;52.684;9.758;2023-06-26T06:23:02;5.80;;;4.10;;
5650;SDS011;40241;52.684;9.758;2023-06-26T06:25:27;4.90;;;4.50;;
5650;SDS011;40241;52.684;9.758;2023-06-26T06:27:52;4.57;;;4.17;;
5650;SDS011;40241;52.684;9.758;2023-06-26T06:30:17;4.37;;;4.07;;
5650;SDS011;40241;52.684;9.758;2023-06-26T06:32:43;4.40;;;4.00;;
5650;SDS011;40241;52.684;9.758;2023-06-26T06:35:08;4.40;;;4.10;;
5650;SDS011;40241;52.684;9.758;2023-06-26T06:37:37;4.13;;;3.83;;
5650;SDS011;40241;52.684;9.758;2023-06-26T06:40:04;4.57;;;4.17;;
5650;SDS011;40241;52.684;9.758;2023-06-26T06:42:31;5.33;;;3.87;;
5650;SDS011;40241;52.684;9.758;2023-06-26T06:44:57;4.90;;;4.50;;
5650;SDS011;40241;52.684;9.758;2023-06-26T06:47:23;3.90;;;3.60;;
5650;SDS011;40241;52.684;9.758;2023-06-26T06:49:48;3.93;;;3.63;;
5650;SDS011;40241;52.684;9.758;2023-06-26T06:52:15;3.80;;;3.50;;
5650;SDS011;40241;52.684;9.758;2023-06-26T06:54:53;4.30;;;3.93;;
5650;SDS011;40241;52.684;9.758;2023-06-26T06:57:20;4.20;;;3.90;;
5650;SDS011;40241;52.684;9.758;2023-06-26T06:59:46;4.60;;;4.20;;
5650;SDS011;40241;52.684;9.758;2023-06-26T07:02:12;3.37;;;3.13;;
5650;SDS011;40241;52.684;9.758;2023-06-26T07:04:38;4.03;;;3.63;;
5650;SDS011;40241;52.684;9.758;2023-06-26T07:07:04;4.60;;;4.20;;
5650;SDS011;40241;52.684;9.758;2023-06-26T07:09:29;4.27;;;3.97;;
5650;SDS011;40241;52.684;9.758;2023-06-26T07:11:55;4.20;;;3.90;;
5650;SDS011;40241;52.684;9.758;2023-06-26T07:14:20;4.20;;;3.90;;
5650;SDS011;40241;52.684;9.758;2023-06-26T07:16:45;5.33;;;4.83;;
5650;SDS011;40241;52.684;9.758;2023-06-26T07:19:10;4.93;;;4.43;;
5650;SDS011;40241;52.684;9.758;2023-06-26T07:21:36;4.30;;;4.00;;
5650;SDS011;40241;52.684;9.758;2023-06-26T07:24:01;4.83;;;4.43;;
5650;SDS011;40241;52.684;9.758;2023-06-26T07:26:26;4.87;;;4.47;;
5650;SDS011;40241;52.684;9.758;2023-06-26T07:28:52;5.30;;;4.80;;
5650;SDS011;40241;52.684;9.758;2023-06-26T07:31:17;4.57;;;4.17;;
5650;SDS011;40241;52.684;9.758;2023-06-26T07:33:43;4.60;;;4.17;;
5650;SDS011;40241;52.684;9.758;2023-06-26T07:36:09;3.93;;;3.63;;
5650;SDS011;40241;52.684;9.758;2023-06-26T07:38:34;4.17;;;3.87;;
5650;SDS011;40241;52.684;9.758;2023-06-26T07:40:59;4.13;;;3.80;;
5650;SDS011;40241;52.684;9.758;2023-06-26T07:43:25;4.57;;;4.17;;
5650;SDS011;40241;52.684;9.758;2023-06-26T07:45:50;4.20;;;3.90;;
5650;SDS011;40241;52.684;9.758;2023-06-26T07:48:16;4.07;;;3.77;;
5650;SDS011;40241;52.684;9.758;2023-06-26T07:50:42;4.90;;;4.43;;
5650;SDS011;40241;52.684;9.758;2023-06-26T07:53:07;5.40;;;4.87;;
5650;SDS011;40241;52.684;9.758;2023-06-26T07:55:33;4.53;;;4.13;;
5650;SDS011;40241;52.684;9.758;2023-06-26T07:57:58;4.33;;;4.03;;
5650;SDS011;40241;52.684;9.758;2023-06-26T08:00:23;4.97;;;4.57;;
5650;SDS011;40241;52.684;9.758;2023-06-26T08:02:49;8.33;;;4.03;;
5650;SDS011;40241;52.684;9.758;2023-06-26T08:05:14;5.40;;;4.87;;
5650;SDS011;40241;52.684;9.758;2023-06-26T08:07:40;6.03;;;4.03;;
5650;SDS011;40241;52.684;9.758;2023-06-26T08:10:05;4.73;;;4.33;;
5650;SDS011;40241;52.684;9.758;2023-06-26T08:12:30;4.57;;;4.20;;
5650;SDS011;40241;52.684;9.758;2023-06-26T08:14:56;4.10;;;3.80;;
5650;SDS011;40241;52.684;9.758;2023-06-26T08:17:21;4.87;;;4.23;;
5650;SDS011;40241;52.684;9.758;2023-06-26T08:19:47;4.00;;;3.70;;
5650;SDS011;40241;52.684;9.758;2023-06-26T08:22:12;5.10;;;4.57;;
5650;SDS011;40241;52.684;9.758;2023-06-26T08:24:38;5.07;;;4.63;;
5650;SDS011;40241;52.684;9.758;2023-06-26T08:27:03;4.73;;;4.33;;
5650;SDS011;40241;52.684;9.758;2023-06-26T08:29:29;4.53;;;4.13;;
5650;SDS011;40241;52.684;9.758;2023-06-26T08:31:54;4.17;;;3.87;;
5650;SDS011;40241;52.684;9.758;2023-06-26T08:34:19;4.43;;;4.13;;
5650;SDS011;40241;52.684;9.758;2023-06-26T08:36:45;4.90;;;4.50;;
5650;SDS011;40241;52.684;9.758;2023-06-26T08:39:10;4.30;;;4.00;;
5650;SDS011;40241;52.684;9.758;2023-06-26T08:41:36;4.60;;;4.27;;
5650;SDS011;40241;52.684;9.758;2023-06-26T08:44:02;4.13;;;3.83;;
5650;SDS011;40241;52.684;9.758;2023-06-26T08:46:28;5.30;;;4.80;;
5650;SDS011;40241;52.684;9.758;2023-06-26T08:49:00;4.40;;;4.10;;
5650;SDS011;40241;52.684;9.758;2023-06-26T08:51:30;4.30;;;4.00;;
5650;SDS011;40241;52.684;9.758;2023-06-26T08:53:59;4.00;;;3.70;;
5650;SDS011;40241;52.684;9.758;2023-06-26T08:56:46;4.73;;;4.33;;
5650;SDS011;40241;52.684;9.758;2023-06-26T08:59:14;5.37;;;4.90;;
5650;SDS011;40241;52.684;9.758;2023-06-26T09:01:40;4.87;;;4.47;;
5650;SDS011;40241;52.684;9.758;2023-06-26T09:04:05;5.53;;;4.80;;
5650;SDS011;40241;52.684;9.758;2023-06-26T09:06:31;4.70;;;4.30;;
5650;SDS011;40241;52.684;9.758;2023-06-26T09:08:57;6.10;;;5.30;;
5650;SDS011;40241;52.684;9.758;2023-06-26T09:11:22;5.57;;;5.07;;
5650;SDS011;40241;52.684;9.758;2023-06-26T09:13:48;5.70;;;5.20;;
5650;SDS011;40241;52.684;9.758;2023-06-26T09:16:13;9.67;;;5.60;;
5650;SDS011;40241;52.684;9.758;2023-06-26T09:18:40;6.10;;;5.00;;
5650;SDS011;40241;52.684;9.758;2023-06-26T09:21:07;5.00;;;4.70;;
5650;SDS011;40241;52.684;9.758;2023-06-26T09:23:34;6.30;;;5.70;;
5650;SDS011;40241;52.684;9.758;2023-06-26T09:26:01;6.60;;;6.10;;
5650;SDS011;40241;52.684;9.758;2023-06-26T09:28:28;7.83;;;4.60;;
5650;SDS011;40241;52.684;9.758;2023-06-26T09:30:54;10.93;;;5.20;;
5650;SDS011;40241;52.684;9.758;2023-06-26T09:33:19;6.53;;;5.30;;
5650;SDS011;40241;52.684;9.758;2023-06-26T09:35:46;4.80;;;4.40;;
5650;SDS011;40241;52.684;9.758;2023-06-26T09:38:13;7.20;;;5.00;;
5650;SDS011;40241;52.684;9.758;2023-06-26T09:40:39;5.23;;;4.70;;
5650;SDS011;40241;52.684;9.758;2023-06-26T09:43:06;6.37;;;5.87;;
5650;SDS011;40241;52.684;9.758;2023-06-26T09:45:33;5.90;;;5.17;;
5650;SDS011;40241;52.684;9.758;2023-06-26T09:48:01;5.90;;;5.40;;
5650;SDS011;40241;52.684;9.758;2023-06-26T09:50:30;5.07;;;4.67;;
5650;SDS011;40241;52.684;9.758;2023-06-26T09:53:03;7.93;;;6.00;;
5650;SDS011;40241;52.684;9.758;2023-06-26T09:55:36;5.97;;;5.47;;
5650;SDS011;40241;52.684;9.758;2023-06-26T09:58:03;7.10;;;6.40;;
5650;SDS011;40241;52.684;9.758;2023-06-26T10:00:29;7.30;;;6.70;;
5650;SDS011;40241;52.684;9.758;2023-06-26T10:02:55;7.80;;;7.10;;
5650;SDS011;40241;52.684;9.758;2023-06-26T10:05:21;9.50;;;8.70;;
5650;SDS011;40241;52.684;9.758;2023-06-26T10:07:46;10.57;;;9.67;;
5650;SDS011;40241;52.684;9.758;2023-06-26T10:10:13;10.90;;;10.00;;
5650;SDS011;40241;52.684;9.758;2023-06-26T10:12:40;10.27;;;9.47;;
5650;SDS011;40241;52.684;9.758;2023-06-26T10:15:09;9.13;;;8.23;;
5650;SDS011;40241;52.684;9.758;2023-06-26T10:17:37;7.80;;;7.10;;
5650;SDS011;40241;52.684;9.758;2023-06-26T10:20:05;6.33;;;5.73;;
5650;SDS011;40241;52.684;9.758;2023-06-26T10:22:37;5.77;;;5.33;;
5650;SDS011;40241;52.684;9.758;2023-06-26T10:25:07;5.77;;;5.20;;
5650;SDS011;40241;52.684;9.758;2023-06-26T10:27:36;7.33;;;6.40;;
5650;SDS011;40241;52.684;9.758;2023-06-26T10:30:09;6.47;;;4.93;;
5650;SDS011;40241;52.684;9.758;2023-06-26T10:32:39;5.27;;;4.87;;
5650;SDS011;40241;52.684;9.758;2023-06-26T10:35:06;5.30;;;4.90;;
5650;SDS011;40241;52.684;9.758;2023-06-26T10:37:44;5.83;;;5.23;;
5650;SDS011;40241;52.684;9.758;2023-06-26T10:40:12;5.77;;;5.27;;
5650;SDS011;40241;52.684;9.758;2023-06-26T10:42:38;7.07;;;5.27;;
5650;SDS011;40241;52.684;9.758;2023-06-26T10:45:11;6.70;;;6.00;;
5650;SDS011;40241;52.684;9.758;2023-06-26T10:47:39;6.43;;;5.83;;
5650;SDS011;40241;52.684;9.758;2023-06-26T10:50:19;7.43;;;6.73;;
5650;SDS011;40241;52.684;9.758;2023-06-26T10:53:07;7.40;;;6.70;;
5650;SDS011;40241;52.684;9.758;2023-06-26T10:55:36;6.33;;;5.70;;
5650;SDS011;40241;52.684;9.758;2023-06-26T10:58:02;7.03;;;6.40;;
5650;SDS011;40241;52.684;9.758;2023-06-26T11:00:28;6.60;;;6.00;;
5650;SDS011;40241;52.684;9.758;2023-06-26T11:02:53;7.73;;;6.73;;
5650;SDS011;40241;52.684;9.758;2023-06-26T11:05:28;7.10;;;6.40;;
5650;SDS011;40241;52.684;9.758;2023-06-26T11:08:07;6.93;;;6.27;;
5650;SDS011;40241;52.684;9.758;2023-06-26T11:10:52;7.00;;;6.40;;
5650;SDS011;40241;52.684;9.758;2023-06-26T11:13:20;6.93;;;6.20;;
5650;SDS011;40241;52.684;9.758;2023-06-26T11:15:49;7.23;;;6.40;;
5650;SDS011;40241;52.684;9.758;2023-06-26T11:18:16;7.20;;;5.70;;
5650;SDS011;40241;52.684;9.758;2023-06-26T11:20:41;6.07;;;5.60;;
5650;SDS011;40241;52.684;9.758;2023-06-26T11:23:10;6.90;;;6.30;;
5650;SDS011;40241;52.684;9.758;2023-06-26T11:25:37;5.87;;;5.37;;
5650;SDS011;40241;52.684;9.758;2023-06-26T11:28:07;5.70;;;5.10;;
5650;SDS011;40241;52.684;9.758;2023-06-26T11:30:34;7.10;;;6.10;;
5650;SDS011;40241;52.684;9.758;2023-06-26T11:33:06;6.57;;;5.70;;
5650;SDS011;40241;52.684;9.758;2023-06-26T11:35:32;6.60;;;5.93;;
5650;SDS011;40241;52.684;9.758;2023-06-26T11:38:00;5.20;;;4.70;;
5650;SDS011;40241;52.684;9.758;2023-06-26T11:40:30;6.10;;;5.50;;
5650;SDS011;40241;52.684;9.758;2023-06-26T11:42:57;6.37;;;5.67;;
5650;SDS011;40241;52.684;9.758;2023-06-26T11:45:24;6.07;;;5.40;;
5650;SDS011;40241;52.684;9.758;2023-06-26T11:47:50;5.97;;;3.93;;
5650;SDS011;40241;52.684;9.758;2023-06-26T11:50:16;4.73;;;4.10;;
5650;SDS011;40241;52.684;9.758;2023-06-26T11:52:42;4.67;;;4.03;;
5650;SDS011;40241;52.684;9.758;2023-06-26T11:55:08;4.80;;;4.20;;
5650;SDS011;40241;52.684;9.758;2023-06-26T11:57:34;3.83;;;3.53;;
5650;SDS011;40241;52.684;9.758;2023-06-26T12:00:09;3.60;;;3.07;;
5650;SDS011;40241;52.684;9.758;2023-06-26T12:02:36;4.27;;;3.33;;
5650;SDS011;40241;52.684;9.758;2023-06-26T12:05:01;3.00;;;2.80;;
5650;SDS011;40241;52.684;9.758;2023-06-26T12:07:27;3.43;;;3.07;;
5650;SDS011;40241;52.684;9.758;2023-06-26T12:09:53;3.53;;;2.90;;
5650;SDS011;40241;52.684;9.758;2023-06-26T12:12:20;2.83;;;2.53;;
5650;SDS011;40241;52.684;9.758;2023-06-26T12:14:45;3.20;;;2.90;;
5650;SDS011;40241;52.684;9.758;2023-06-26T12:17:12;3.77;;;3.37;;
5650;SDS011;40241;52.684;9.758;2023-06-26T12:19:39;5.83;;;2.40;;
5650;SDS011;40241;52.684;9.758;2023-06-26T12:22:08;3.63;;;2.27;;
5650;SDS011;40241;52.684;9.758;2023-06-26T12:24:35;4.60;;;2.60;;
5650;SDS011;40241;52.684;9.758;2023-06-26T12:27:01;2.93;;;2.67;;
5650;SDS011;40241;52.684;9.758;2023-06-26T12:29:33;4.63;;;2.93;;
5650;SDS011;40241;52.684;9.758;2023-06-26T12:31:59;3.30;;;2.40;;
5650;SDS011;40241;52.684;9.758;2023-06-26T12:34:26;2.77;;;2.57;;
5650;SDS011;40241;52.684;9.758;2023-06-26T12:37:03;2.63;;;2.10;;
5650;SDS011;40241;52.684;9.758;2023-06-26T12:39:45;3.63;;;2.10;;
5650;SDS011;40241;52.684;9.758;2023-06-26T12:42:16;2.10;;;2.00;;
5650;SDS011;40241;52.684;9.758;2023-06-26T12:44:43;2.97;;;2.33;;
5650;SDS011;40241;52.684;9.758;2023-06-26T12:47:08;2.67;;;1.87;;
5650;SDS011;40241;52.684;9.758;2023-06-26T12:52:02;4.10;;;2.30;;
5650;SDS011;40241;52.684;9.758;2023-06-26T12:54:29;2.63;;;1.83;;
5650;SDS011;40241;52.684;9.758;2023-06-26T12:56:55;3.10;;;2.30;;
5650;SDS011;40241;52.684;9.758;2023-06-26T12:59:21;2.23;;;2.03;;
5650;SDS011;40241;52.684;9.758;2023-06-26T13:01:47;3.37;;;1.80;;
5650;SDS011;40241;52.684;9.758;2023-06-26T13:04:13;1.47;;;1.37;;
5650;SDS011;40241;52.684;9.758;2023-06-26T13:06:38;2.07;;;1.43;;
5650;SDS011;40241;52.684;9.758;2023-06-26T13:09:04;3.10;;;2.03;;
5650;SDS011;40241;52.684;9.758;2023-06-26T13:11:29;2.80;;;1.50;;
5650;SDS011;40241;52.684;9.758;2023-06-26T13:13:55;2.30;;;1.70;;
5650;SDS011;40241;52.684;9.758;2023-06-26T13:16:21;1.73;;;1.20;;
5650;SDS011;40241;52.684;9.758;2023-06-26T13:18:46;4.70;;;1.87;;
5650;SDS011;40241;52.684;9.758;2023-06-26T13:21:12;2.07;;;1.60;;
5650;SDS011;40241;52.684;9.758;2023-06-26T13:23:37;1.50;;;1.30;;
5650;SDS011;40241;52.684;9.758;2023-06-26T13:26:03;3.43;;;1.37;;
5650;SDS011;40241;52.684;9.758;2023-06-26T13:28:30;2.30;;;1.57;;
5650;SDS011;40241;52.684;9.758;2023-06-26T13:30:55;1.63;;;1.23;;
5650;SDS011;40241;52.684;9.758;2023-06-26T13:33:20;1.90;;;1.43;;
5650;SDS011;40241;52.684;9.758;2023-06-26T13:35:46;1.63;;;1.53;;
5650;SDS011;40241;52.684;9.758;2023-06-26T13:38:11;4.00;;;1.43;;
5650;SDS011;40241;52.684;9.758;2023-06-26T13:40:36;2.43;;;1.27;;
5650;SDS011;40241;52.684;9.758;2023-06-26T13:43:02;2.97;;;1.40;;
5650;SDS011;40241;52.684;9.758;2023-06-26T13:45:28;2.80;;;1.90;;
5650;SDS011;40241;52.684;9.758;2023-06-26T13:47:53;1.40;;;1.30;;
5650;SDS011;40241;52.684;9.758;2023-06-26T13:50:19;2.97;;;1.37;;
5650;SDS011;40241;52.684;9.758;2023-06-26T13:52:44;1.60;;;1.40;;
5650;SDS011;40241;52.684;9.758;2023-06-26T13:55:10;1.93;;;1.40;;
5650;SDS011;40241;52.684;9.758;2023-06-26T13:57:35;2.00;;;1.80;;
5650;SDS011;40241;52.684;9.758;2023-06-26T14:00:07;3.60;;;1.67;;
5650;SDS011;40241;52.684;9.758;2023-06-26T14:02:34;1.40;;;1.30;;
5650;SDS011;40241;52.684;9.758;2023-06-26T14:04:59;2.97;;;1.40;;
5650;SDS011;40241;52.684;9.758;2023-06-26T14:07:24;1.47;;;1.37;;
5650;SDS011;40241;52.684;9.758;2023-06-26T14:09:50;1.70;;;1.37;;
5650;SDS011;40241;52.684;9.758;2023-06-26T14:12:15;1.57;;;1.27;;
5650;SDS011;40241;52.684;9.758;2023-06-26T14:14:40;2.77;;;1.50;;
5650;SDS011;40241;52.684;9.758;2023-06-26T14:17:07;2.50;;;1.17;;
5650;SDS011;40241;52.684;9.758;2023-06-26T14:19:34;1.53;;;1.43;;
5650;SDS011;40241;52.684;9.758;2023-06-26T14:21:59;1.63;;;1.20;;
5650;SDS011;40241;52.684;9.758;2023-06-26T14:24:26;2.23;;;1.23;;
5650;SDS011;40241;52.684;9.758;2023-06-26T14:26:51;1.60;;;1.30;;
5650;SDS011;40241;52.684;9.758;2023-06-26T14:29:17;1.50;;;1.10;;
5650;SDS011;40241;52.684;9.758;2023-06-26T14:31:43;1.30;;;1.03;;
5650;SDS011;40241;52.684;9.758;2023-06-26T14:34:08;6.37;;;1.27;;
5650;SDS011;40241;52.684;9.758;2023-06-26T14:36:34;1.70;;;1.37;;
5650;SDS011;40241;52.684;9.758;2023-06-26T14:39:00;1.53;;;1.17;;
5650;SDS011;40241;52.684;9.758;2023-06-26T14:41:25;1.50;;;1.40;;
5650;SDS011;40241;52.684;9.758;2023-06-26T14:43:50;2.20;;;1.33;;
5650;SDS011;40241;52.684;9.758;2023-06-26T14:46:16;1.33;;;1.20;;
5650;SDS011;40241;52.684;9.758;2023-06-26T14:48:41;1.40;;;1.30;;
5650;SDS011;40241;52.684;9.758;2023-06-26T14:51:06;1.30;;;1.20;;
5650;SDS011;40241;52.684;9.758;2023-06-26T14:53:32;2.70;;;1.27;;
5650;SDS011;40241;52.684;9.758;2023-06-26T14:55:57;2.87;;;1.10;;
5650;SDS011;40241;52.684;9.758;2023-06-26T14:58:22;1.83;;;1.47;;
5650;SDS011;40241;52.684;9.758;2023-06-26T15:00:48;2.07;;;1.00;;
5650;SDS011;40241;52.684;9.758;2023-06-26T15:03:13;1.70;;;1.27;;
5650;SDS011;40241;52.684;9.758;2023-06-26T15:05:39;1.83;;;1.40;;